Souto Soares, Brazil
Current Conditions -  °F | °C
As of 10:00 AM on Friday 24 Oct 2014 (Local Time) from SBQV Reporting Station
Broken Clouds Broken Clouds  
Wind Chill: 68°   Ceiling: 1100
Heat Index: 68°   Visibility: 6mi
Dew Point: 64°   Wind: 8mph
Humidity: 88%   Direction: 130°SE
Pressure: 30.18"   Gusts: NA
Location:  12.09°S, 41.64°W
Report Text: SBQV 241300Z 13007KT 9999 FEW006 BKN011 20/18 Q1022
Loading
Personal Weather Stations






























Interactive Weather Map
Tropical Storm Tracking
New forecast layout! Learn more

10-Day Weather Forecast

Advertisements
Track Severe Weather on mobile